sensor_id;sensor_type;location;lat;lon;timestamp;pressure;altitude;pressure_sealevel;temperature;humidity
16738;BME280;17906;47.684;10.806;2022-08-11T00:01:45;93685.19;;;8.65;79.38
16738;BME280;17906;47.684;10.806;2022-08-11T00:04:13;93691.75;;;8.58;80.04
16738;BME280;17906;47.684;10.806;2022-08-11T00:06:42;93698.72;;;8.47;80.41
16738;BME280;17906;47.684;10.806;2022-08-11T00:09:14;93689.25;;;8.38;79.41
16738;BME280;17906;47.684;10.806;2022-08-11T00:11:44;93691.50;;;8.41;79.62
16738;BME280;17906;47.684;10.806;2022-08-11T00:14:14;93689.56;;;8.48;79.57
16738;BME280;17906;47.684;10.806;2022-08-11T00:16:51;93693.31;;;8.47;79.52
16738;BME280;17906;47.684;10.806;2022-08-11T00:19:20;93696.22;;;8.27;81.01
16738;BME280;17906;47.684;10.806;2022-08-11T00:21:47;93691.88;;;8.26;80.59
16738;BME280;17906;47.684;10.806;2022-08-11T00:24:15;93696.00;;;8.29;80.52
16738;BME280;17906;47.684;10.806;2022-08-11T00:26:46;93689.97;;;8.08;81.60
16738;BME280;17906;47.684;10.806;2022-08-11T00:29:13;93697.09;;;8.03;82.03
16738;BME280;17906;47.684;10.806;2022-08-11T00:31:46;93692.19;;;7.93;82.85
16738;BME280;17906;47.684;10.806;2022-08-11T00:34:16;93692.56;;;7.97;83.14
16738;BME280;17906;47.684;10.806;2022-08-11T00:36:48;93697.91;;;8.03;83.02
16738;BME280;17906;47.684;10.806;2022-08-11T00:39:16;93695.81;;;8.05;83.19
16738;BME280;17906;47.684;10.806;2022-08-11T00:41:55;93701.31;;;8.17;82.58
16738;BME280;17906;47.684;10.806;2022-08-11T00:44:37;93694.16;;;8.04;82.55
16738;BME280;17906;47.684;10.806;2022-08-11T00:47:17;93695.94;;;7.92;83.02
16738;BME280;17906;47.684;10.806;2022-08-11T00:50:03;93684.09;;;7.93;83.55
16738;BME280;17906;47.684;10.806;2022-08-11T00:56:15;93688.31;;;7.82;83.28
16738;BME280;17906;47.684;10.806;2022-08-11T00:59:17;93693.44;;;7.91;83.39
16738;BME280;17906;47.684;10.806;2022-08-11T01:01:56;93687.59;;;7.94;83.33
16738;BME280;17906;47.684;10.806;2022-08-11T01:05:09;93684.47;;;7.97;82.60
16738;BME280;17906;47.684;10.806;2022-08-11T01:10:56;93688.41;;;7.69;84.61
16738;BME280;17906;47.684;10.806;2022-08-11T01:14:05;93683.22;;;7.68;84.79
16738;BME280;17906;47.684;10.806;2022-08-11T01:16:56;93677.22;;;7.66;83.22
16738;BME280;17906;47.684;10.806;2022-08-11T01:19:53;93673.47;;;7.67;83.39
16738;BME280;17906;47.684;10.806;2022-08-11T01:25:56;93680.97;;;7.65;84.38
16738;BME280;17906;47.684;10.806;2022-08-11T01:29:18;93678.25;;;7.65;85.00
16738;BME280;17906;47.684;10.806;2022-08-11T01:32:30;93684.03;;;7.68;83.95
16738;BME280;17906;47.684;10.806;2022-08-11T01:35:26;93679.09;;;7.65;83.75
16738;BME280;17906;47.684;10.806;2022-08-11T01:41:25;93668.75;;;7.31;84.55
16738;BME280;17906;47.684;10.806;2022-08-11T01:47:22;93669.44;;;7.26;83.75
16738;BME280;17906;47.684;10.806;2022-08-11T01:50:13;93657.84;;;7.19;84.62
16738;BME280;17906;47.684;10.806;2022-08-11T01:52:55;93653.44;;;6.93;85.15
16738;BME280;17906;47.684;10.806;2022-08-11T01:55:32;93658.28;;;6.78;86.01
16738;BME280;17906;47.684;10.806;2022-08-11T01:58:06;93652.78;;;6.97;84.60
16738;BME280;17906;47.684;10.806;2022-08-11T02:00:42;93649.63;;;7.07;84.18
16738;BME280;17906;47.684;10.806;2022-08-11T02:03:17;93645.91;;;7.02;84.89
16738;BME280;17906;47.684;10.806;2022-08-11T02:05:59;93642.50;;;7.19;84.85
16738;BME280;17906;47.684;10.806;2022-08-11T02:08:57;93647.66;;;7.21;85.13
16738;BME280;17906;47.684;10.806;2022-08-11T02:11:27;93642.44;;;6.94;86.12
16738;BME280;17906;47.684;10.806;2022-08-11T02:14:02;93656.75;;;6.95;85.48
16738;BME280;17906;47.684;10.806;2022-08-11T02:16:45;93655.88;;;7.01;85.34
16738;BME280;17906;47.684;10.806;2022-08-11T02:19:21;93653.41;;;6.99;85.63
16738;BME280;17906;47.684;10.806;2022-08-11T02:22:12;93638.03;;;7.07;85.02
16738;BME280;17906;47.684;10.806;2022-08-11T02:25:04;93643.69;;;6.92;85.81
16738;BME280;17906;47.684;10.806;2022-08-11T02:27:37;93646.59;;;6.90;86.46
16738;BME280;17906;47.684;10.806;2022-08-11T02:30:09;93645.69;;;7.03;86.14
16738;BME280;17906;47.684;10.806;2022-08-11T02:32:46;93646.00;;;6.88;85.64
16738;BME280;17906;47.684;10.806;2022-08-11T02:35:40;93644.81;;;6.78;85.67
16738;BME280;17906;47.684;10.806;2022-08-11T02:38:16;93646.81;;;6.51;86.80
16738;BME280;17906;47.684;10.806;2022-08-11T02:40:49;93641.59;;;6.56;87.32
16738;BME280;17906;47.684;10.806;2022-08-11T02:43:28;93646.28;;;6.74;85.87
16738;BME280;17906;47.684;10.806;2022-08-11T02:46:04;93640.75;;;6.62;84.39
16738;BME280;17906;47.684;10.806;2022-08-11T02:48:38;93642.88;;;6.47;85.65
16738;BME280;17906;47.684;10.806;2022-08-11T02:54:24;93645.84;;;6.32;87.86
16738;BME280;17906;47.684;10.806;2022-08-11T02:56:58;93648.25;;;6.47;87.29
16738;BME280;17906;47.684;10.806;2022-08-11T02:59:37;93639.19;;;6.34;86.71
16738;BME280;17906;47.684;10.806;2022-08-11T03:02:30;93637.31;;;6.41;87.32
16738;BME280;17906;47.684;10.806;2022-08-11T03:05:06;93636.06;;;6.37;88.38
16738;BME280;17906;47.684;10.806;2022-08-11T03:07:47;93639.25;;;6.28;87.83
16738;BME280;17906;47.684;10.806;2022-08-11T03:10:21;93637.53;;;6.33;87.64
16738;BME280;17906;47.684;10.806;2022-08-11T03:12:52;93636.16;;;6.18;86.81
16738;BME280;17906;47.684;10.806;2022-08-11T03:15:44;93643.41;;;6.17;86.82
16738;BME280;17906;47.684;10.806;2022-08-11T03:18:43;93645.41;;;6.35;86.44
16738;BME280;17906;47.684;10.806;2022-08-11T03:21:20;93637.94;;;6.37;86.92
16738;BME280;17906;47.684;10.806;2022-08-11T03:23:54;93636.28;;;6.36;85.43
16738;BME280;17906;47.684;10.806;2022-08-11T03:26:24;93645.63;;;6.40;85.71
16738;BME280;17906;47.684;10.806;2022-08-11T03:29:03;93646.22;;;6.35;86.06
16738;BME280;17906;47.684;10.806;2022-08-11T03:31:33;93645.19;;;6.36;85.90
16738;BME280;17906;47.684;10.806;2022-08-11T03:34:03;93648.38;;;6.13;86.26
16738;BME280;17906;47.684;10.806;2022-08-11T03:36:52;93655.44;;;6.08;85.57
16738;BME280;17906;47.684;10.806;2022-08-11T03:39:28;93648.59;;;6.05;86.34
16738;BME280;17906;47.684;10.806;2022-08-11T03:42:05;93648.97;;;6.16;85.66
16738;BME280;17906;47.684;10.806;2022-08-11T03:44:47;93647.53;;;6.13;85.51
16738;BME280;17906;47.684;10.806;2022-08-11T03:47:34;93641.97;;;5.95;85.62
16738;BME280;17906;47.684;10.806;2022-08-11T03:50:15;93641.56;;;5.98;85.91
16738;BME280;17906;47.684;10.806;2022-08-11T03:52:52;93645.06;;;5.98;85.82
16738;BME280;17906;47.684;10.806;2022-08-11T03:55:31;93645.72;;;6.07;85.65
16738;BME280;17906;47.684;10.806;2022-08-11T03:58:29;93643.59;;;6.16;85.61
16738;BME280;17906;47.684;10.806;2022-08-11T04:04:29;93644.69;;;5.81;87.14
16738;BME280;17906;47.684;10.806;2022-08-11T04:07:43;93648.63;;;5.79;87.82
16738;BME280;17906;47.684;10.806;2022-08-11T04:10:40;93647.19;;;5.70;88.19
16738;BME280;17906;47.684;10.806;2022-08-11T04:16:23;93642.22;;;5.73;86.96
16738;BME280;17906;47.684;10.806;2022-08-11T04:22:21;93648.00;;;5.77;86.56
16738;BME280;17906;47.684;10.806;2022-08-11T04:25:23;93638.91;;;5.65;87.34
16738;BME280;17906;47.684;10.806;2022-08-11T04:31:33;93646.59;;;5.54;89.09
16738;BME280;17906;47.684;10.806;2022-08-11T04:34:29;93638.09;;;5.51;88.98
16738;BME280;17906;47.684;10.806;2022-08-11T04:37:13;93639.97;;;5.44;89.00
16738;BME280;17906;47.684;10.806;2022-08-11T04:43:41;93642.84;;;5.69;88.23
16738;BME280;17906;47.684;10.806;2022-08-11T04:46:39;93636.63;;;5.68;88.59
16738;BME280;17906;47.684;10.806;2022-08-11T04:49:24;93645.94;;;5.66;88.25
16738;BME280;17906;47.684;10.806;2022-08-11T04:52:27;93637.84;;;5.79;86.63
16738;BME280;17906;47.684;10.806;2022-08-11T04:55:34;93640.53;;;5.92;85.75
16738;BME280;17906;47.684;10.806;2022-08-11T04:58:30;93642.81;;;5.82;86.97
16738;BME280;17906;47.684;10.806;2022-08-11T05:01:26;93644.28;;;5.78;88.60
16738;BME280;17906;47.684;10.806;2022-08-11T05:10:50;93651.06;;;5.94;91.19
16738;BME280;17906;47.684;10.806;2022-08-11T05:13:26;93651.06;;;6.20;91.67
16738;BME280;17906;47.684;10.806;2022-08-11T05:16:16;93644.78;;;6.39;91.76
16738;BME280;17906;47.684;10.806;2022-08-11T05:19:02;93647.81;;;6.56;92.01
16738;BME280;17906;47.684;10.806;2022-08-11T05:21:52;93644.88;;;6.64;93.04
16738;BME280;17906;47.684;10.806;2022-08-11T05:24:41;93650.59;;;6.81;93.37
16738;BME280;17906;47.684;10.806;2022-08-11T05:27:32;93648.06;;;6.93;94.50
16738;BME280;17906;47.684;10.806;2022-08-11T05:30:19;93645.28;;;7.06;94.63
16738;BME280;17906;47.684;10.806;2022-08-11T05:33:09;93651.97;;;7.28;93.78
16738;BME280;17906;47.684;10.806;2022-08-11T05:36:00;93639.41;;;7.47;94.39
16738;BME280;17906;47.684;10.806;2022-08-11T05:38:33;93642.59;;;7.63;93.90
16738;BME280;17906;47.684;10.806;2022-08-11T05:41:19;93642.41;;;7.82;94.25
16738;BME280;17906;47.684;10.806;2022-08-11T05:44:06;93635.41;;;8.00;93.74
16738;BME280;17906;47.684;10.806;2022-08-11T05:46:51;93642.34;;;8.14;93.55
16738;BME280;17906;47.684;10.806;2022-08-11T05:49:35;93637.84;;;8.26;94.64
16738;BME280;17906;47.684;10.806;2022-08-11T05:52:22;93630.59;;;8.45;94.59
16738;BME280;17906;47.684;10.806;2022-08-11T05:55:09;93629.72;;;8.63;94.50
16738;BME280;17906;47.684;10.806;2022-08-11T05:57:55;93633.25;;;8.82;94.03
16738;BME280;17906;47.684;10.806;2022-08-11T06:00:24;93617.34;;;9.03;93.24
16738;BME280;17906;47.684;10.806;2022-08-11T06:02:53;93636.00;;;9.23;91.94
16738;BME280;17906;47.684;10.806;2022-08-11T06:05:21;93633.84;;;9.44;91.53
16738;BME280;17906;47.684;10.806;2022-08-11T06:07:49;93635.41;;;9.63;90.33
16738;BME280;17906;47.684;10.806;2022-08-11T06:10:27;93639.09;;;9.80;89.23
16738;BME280;17906;47.684;10.806;2022-08-11T06:12:57;93627.34;;;9.98;88.42
16738;BME280;17906;47.684;10.806;2022-08-11T06:15:27;93630.28;;;10.20;86.72
16738;BME280;17906;47.684;10.806;2022-08-11T06:17:56;93627.44;;;10.38;87.15
16738;BME280;17906;47.684;10.806;2022-08-11T06:20:26;93630.72;;;10.52;85.93
16738;BME280;17906;47.684;10.806;2022-08-11T06:23:01;93626.56;;;10.73;85.55
16738;BME280;17906;47.684;10.806;2022-08-11T06:25:30;93631.47;;;10.88;83.81
16738;BME280;17906;47.684;10.806;2022-08-11T06:27:58;93621.28;;;11.07;81.11
16738;BME280;17906;47.684;10.806;2022-08-11T06:30:35;93629.72;;;11.22;81.32
16738;BME280;17906;47.684;10.806;2022-08-11T06:33:08;93636.59;;;11.41;80.47
16738;BME280;17906;47.684;10.806;2022-08-11T06:35:43;93641.56;;;11.61;79.79
16738;BME280;17906;47.684;10.806;2022-08-11T06:38:14;93633.91;;;11.75;77.28
16738;BME280;17906;47.684;10.806;2022-08-11T06:40:51;93626.69;;;11.97;76.32
16738;BME280;17906;47.684;10.806;2022-08-11T06:43:44;93626.38;;;12.27;74.32
16738;BME280;17906;47.684;10.806;2022-08-11T06:46:17;93634.47;;;12.44;74.41
16738;BME280;17906;47.684;10.806;2022-08-11T06:48:49;93620.75;;;12.72;71.88
16738;BME280;17906;47.684;10.806;2022-08-11T06:51:16;93617.13;;;12.89;72.35
16738;BME280;17906;47.684;10.806;2022-08-11T06:53:44;93619.53;;;13.07;70.25
16738;BME280;17906;47.684;10.806;2022-08-11T06:56:12;93618.69;;;13.28;70.99
16738;BME280;17906;47.684;10.806;2022-08-11T06:58:58;93625.97;;;13.45;70.28
16738;BME280;17906;47.684;10.806;2022-08-11T07:01:51;93622.06;;;13.62;67.63
16738;BME280;17906;47.684;10.806;2022-08-11T07:04:23;93622.25;;;13.83;68.42
16738;BME280;17906;47.684;10.806;2022-08-11T07:07:05;93624.03;;;13.99;68.48
16738;BME280;17906;47.684;10.806;2022-08-11T07:10:17;93621.78;;;14.28;68.86
16738;BME280;17906;47.684;10.806;2022-08-11T07:13:04;93615.47;;;14.55;66.80
16738;BME280;17906;47.684;10.806;2022-08-11T07:15:50;93617.22;;;14.76;64.68
16738;BME280;17906;47.684;10.806;2022-08-11T07:18:24;93612.38;;;14.93;64.87
16738;BME280;17906;47.684;10.806;2022-08-11T07:21:12;93615.53;;;15.22;63.95
16738;BME280;17906;47.684;10.806;2022-08-11T07:24:00;93616.75;;;15.52;64.71
16738;BME280;17906;47.684;10.806;2022-08-11T07:26:49;93609.09;;;15.69;63.65
16738;BME280;17906;47.684;10.806;2022-08-11T07:29:35;93615.97;;;15.92;62.39
16738;BME280;17906;47.684;10.806;2022-08-11T07:32:12;93617.91;;;16.17;61.76
16738;BME280;17906;47.684;10.806;2022-08-11T07:34:46;93610.81;;;16.26;62.88
16738;BME280;17906;47.684;10.806;2022-08-11T07:37:15;93613.53;;;16.51;61.89
16738;BME280;17906;47.684;10.806;2022-08-11T07:39:45;93603.59;;;16.86;60.47
16738;BME280;17906;47.684;10.806;2022-08-11T07:42:14;93610.34;;;17.19;60.14
16738;BME280;17906;47.684;10.806;2022-08-11T07:44:43;93605.03;;;17.43;58.42
16738;BME280;17906;47.684;10.806;2022-08-11T07:47:28;93607.97;;;17.62;57.92
16738;BME280;17906;47.684;10.806;2022-08-11T07:50:15;93606.66;;;17.93;57.32
16738;BME280;17906;47.684;10.806;2022-08-11T07:53:00;93600.13;;;17.89;57.50
16738;BME280;17906;47.684;10.806;2022-08-11T07:55:27;93601.84;;;18.19;58.34
16738;BME280;17906;47.684;10.806;2022-08-11T07:57:57;93599.72;;;18.45;56.26
16738;BME280;17906;47.684;10.806;2022-08-11T08:00:44;93604.22;;;18.60;55.57
16738;BME280;17906;47.684;10.806;2022-08-11T08:03:29;93599.97;;;18.73;55.36
16738;BME280;17906;47.684;10.806;2022-08-11T08:06:16;93606.31;;;19.02;54.16
16738;BME280;17906;47.684;10.806;2022-08-11T08:09:02;93606.50;;;19.30;53.74
16738;BME280;17906;47.684;10.806;2022-08-11T08:11:46;93600.38;;;19.38;52.02
16738;BME280;17906;47.684;10.806;2022-08-11T08:14:31;93601.16;;;19.44;52.69
16738;BME280;17906;47.684;10.806;2022-08-11T08:17:16;93607.09;;;19.51;51.28
16738;BME280;17906;47.684;10.806;2022-08-11T08:20:01;93599.94;;;20.30;50.92
16738;BME280;17906;47.684;10.806;2022-08-11T08:22:29;93594.31;;;20.35;48.80
16738;BME280;17906;47.684;10.806;2022-08-11T08:24:56;93597.22;;;20.76;49.79
16738;BME280;17906;47.684;10.806;2022-08-11T08:27:23;93592.22;;;21.38;48.72
16738;BME280;17906;47.684;10.806;2022-08-11T08:29:51;93592.31;;;21.61;46.86
16738;BME280;17906;47.684;10.806;2022-08-11T08:32:37;93591.00;;;21.31;47.49
16738;BME280;17906;47.684;10.806;2022-08-11T08:35:05;93591.69;;;21.64;47.02
16738;BME280;17906;47.684;10.806;2022-08-11T08:37:34;93594.16;;;21.52;45.33
16738;BME280;17906;47.684;10.806;2022-08-11T08:40:00;93595.25;;;21.64;45.95
16738;BME280;17906;47.684;10.806;2022-08-11T08:42:29;93591.88;;;21.81;46.56
16738;BME280;17906;47.684;10.806;2022-08-11T08:45:04;93596.56;;;21.67;45.54
16738;BME280;17906;47.684;10.806;2022-08-11T08:47:34;93591.00;;;21.94;45.27
16738;BME280;17906;47.684;10.806;2022-08-11T08:50:04;93591.56;;;21.83;45.24
16738;BME280;17906;47.684;10.806;2022-08-11T08:52:36;93585.66;;;22.12;43.58
16738;BME280;17906;47.684;10.806;2022-08-11T08:55:06;93590.03;;;22.49;44.47
16738;BME280;17906;47.684;10.806;2022-08-11T08:57:35;93596.63;;;22.62;44.85
16738;BME280;17906;47.684;10.806;2022-08-11T09:00:04;93595.88;;;22.25;44.26
16738;BME280;17906;47.684;10.806;2022-08-11T09:02:31;93577.66;;;22.46;43.70
16738;BME280;17906;47.684;10.806;2022-08-11T09:04:59;93585.31;;;22.94;44.63
16738;BME280;17906;47.684;10.806;2022-08-11T09:07:26;93592.25;;;23.14;42.70
16738;BME280;17906;47.684;10.806;2022-08-11T09:09:56;93589.63;;;22.64;42.32
16738;BME280;17906;47.684;10.806;2022-08-11T09:12:26;93589.31;;;22.43;43.18
16738;BME280;17906;47.684;10.806;2022-08-11T09:14:54;93584.44;;;22.40;43.06
16738;BME280;17906;47.684;10.806;2022-08-11T09:17:30;93594.22;;;22.69;43.48
16738;BME280;17906;47.684;10.806;2022-08-11T09:20:00;93596.88;;;22.74;43.08
16738;BME280;17906;47.684;10.806;2022-08-11T09:22:30;93593.75;;;22.89;41.56
16738;BME280;17906;47.684;10.806;2022-08-11T09:25:18;93590.66;;;22.68;42.16
16738;BME280;17906;47.684;10.806;2022-08-11T09:28:03;93592.56;;;22.81;42.58
16738;BME280;17906;47.684;10.806;2022-08-11T09:30:32;93597.06;;;23.00;41.73
16738;BME280;17906;47.684;10.806;2022-08-11T09:33:01;93591.59;;;23.17;41.40
16738;BME280;17906;47.684;10.806;2022-08-11T09:35:32;93604.16;;;22.70;42.48
16738;BME280;17906;47.684;10.806;2022-08-11T09:38:03;93591.34;;;23.36;41.35
16738;BME280;17906;47.684;10.806;2022-08-11T09:40:50;93596.81;;;23.50;40.88
16738;BME280;17906;47.684;10.806;2022-08-11T09:43:18;93598.91;;;23.13;41.09
16738;BME280;17906;47.684;10.806;2022-08-11T09:46:04;93600.31;;;23.02;42.30
16738;BME280;17906;47.684;10.806;2022-08-11T09:48:35;93600.53;;;22.83;42.49
16738;BME280;17906;47.684;10.806;2022-08-11T09:51:03;93605.41;;;22.86;41.82
16738;BME280;17906;47.684;10.806;2022-08-11T09:53:33;93595.22;;;23.57;42.58
16738;BME280;17906;47.684;10.806;2022-08-11T09:56:03;93593.13;;;23.71;39.94
16738;BME280;17906;47.684;10.806;2022-08-11T09:58:50;93595.22;;;23.57;42.32
16738;BME280;17906;47.684;10.806;2022-08-11T10:01:20;93594.78;;;23.33;43.18
16738;BME280;17906;47.684;10.806;2022-08-11T10:03:59;93602.16;;;22.39;42.62
16738;BME280;17906;47.684;10.806;2022-08-11T10:06:28;93611.00;;;22.95;42.75
16738;BME280;17906;47.684;10.806;2022-08-11T10:09:16;93607.41;;;23.25;41.94
16738;BME280;17906;47.684;10.806;2022-08-11T10:11:46;93607.63;;;23.37;41.38
16738;BME280;17906;47.684;10.806;2022-08-11T10:14:15;93611.50;;;22.97;42.29
16738;BME280;17906;47.684;10.806;2022-08-11T10:17:05;93619.25;;;23.17;42.37
16738;BME280;17906;47.684;10.806;2022-08-11T10:19:32;93618.19;;;23.66;42.64
16738;BME280;17906;47.684;10.806;2022-08-11T10:22:00;93618.16;;;23.27;41.74
16738;BME280;17906;47.684;10.806;2022-08-11T10:24:45;93621.03;;;23.13;42.68
16738;BME280;17906;47.684;10.806;2022-08-11T10:27:31;93613.28;;;22.93;43.77
16738;BME280;17906;47.684;10.806;2022-08-11T10:29:58;93620.44;;;23.25;42.16
16738;BME280;17906;47.684;10.806;2022-08-11T10:32:43;93614.25;;;23.59;43.42
16738;BME280;17906;47.684;10.806;2022-08-11T10:35:29;93616.41;;;23.70;44.36
16738;BME280;17906;47.684;10.806;2022-08-11T10:37:58;93610.22;;;23.65;44.30
16738;BME280;17906;47.684;10.806;2022-08-11T10:40:26;93614.25;;;24.24;44.34
16738;BME280;17906;47.684;10.806;2022-08-11T10:42:58;93609.22;;;23.30;43.34
16738;BME280;17906;47.684;10.806;2022-08-11T10:45:28;93612.09;;;23.16;43.84
16738;BME280;17906;47.684;10.806;2022-08-11T10:48:14;93601.63;;;23.75;43.02
16738;BME280;17906;47.684;10.806;2022-08-11T10:50:44;93604.38;;;23.35;42.83
16738;BME280;17906;47.684;10.806;2022-08-11T10:53:30;93601.94;;;23.03;43.80
16738;BME280;17906;47.684;10.806;2022-08-11T10:56:16;93603.03;;;22.71;44.32
16738;BME280;17906;47.684;10.806;2022-08-11T10:59:02;93603.63;;;23.12;44.43
16738;BME280;17906;47.684;10.806;2022-08-11T11:01:35;93596.38;;;23.74;44.56
16738;BME280;17906;47.684;10.806;2022-08-11T11:04:05;93590.13;;;23.51;42.56
16738;BME280;17906;47.684;10.806;2022-08-11T11:06:37;93586.97;;;23.92;43.22
16738;BME280;17906;47.684;10.806;2022-08-11T11:09:12;93597.97;;;23.57;43.08
16738;BME280;17906;47.684;10.806;2022-08-11T11:11:43;93594.50;;;23.43;43.50
16738;BME280;17906;47.684;10.806;2022-08-11T11:14:31;93589.72;;;23.35;43.27
16738;BME280;17906;47.684;10.806;2022-08-11T11:17:22;93588.38;;;23.24;43.11
16738;BME280;17906;47.684;10.806;2022-08-11T11:20:09;93574.88;;;23.70;43.38
16738;BME280;17906;47.684;10.806;2022-08-11T11:22:38;93586.63;;;23.36;43.27
16738;BME280;17906;47.684;10.806;2022-08-11T11:25:20;93584.00;;;23.31;42.79
16738;BME280;17906;47.684;10.806;2022-08-11T11:28:15;93590.69;;;23.70;43.24
16738;BME280;17906;47.684;10.806;2022-08-11T11:30:57;93588.41;;;23.72;42.26
16738;BME280;17906;47.684;10.806;2022-08-11T11:33:46;93582.63;;;23.43;42.97
16738;BME280;17906;47.684;10.806;2022-08-11T11:36:24;93592.44;;;23.57;43.39
16738;BME280;17906;47.684;10.806;2022-08-11T11:38:53;93579.38;;;23.49;43.05
16738;BME280;17906;47.684;10.806;2022-08-11T11:41:22;93584.06;;;23.40;44.26
16738;BME280;17906;47.684;10.806;2022-08-11T11:43:53;93582.41;;;22.99;44.67
16738;BME280;17906;47.684;10.806;2022-08-11T11:46:24;93571.72;;;23.46;45.27
16738;BME280;17906;47.684;10.806;2022-08-11T11:48:52;93576.53;;;23.80;44.63
16738;BME280;17906;47.684;10.806;2022-08-11T11:51:20;93574.38;;;23.29;43.88
16738;BME280;17906;47.684;10.806;2022-08-11T11:53:48;93578.56;;;23.18;45.00
16738;BME280;17906;47.684;10.806;2022-08-11T11:56:15;93570.81;;;23.28;44.39
16738;BME280;17906;47.684;10.806;2022-08-11T11:58:42;93567.25;;;23.76;44.66
16738;BME280;17906;47.684;10.806;2022-08-11T12:01:29;93567.75;;;23.95;42.76
16738;BME280;17906;47.684;10.806;2022-08-11T12:03:57;93560.81;;;23.50;42.46
16738;BME280;17906;47.684;10.806;2022-08-11T12:06:24;93570.69;;;23.33;43.20
16738;BME280;17906;47.684;10.806;2022-08-11T12:08:54;93555.19;;;23.72;45.16
16738;BME280;17906;47.684;10.806;2022-08-11T12:11:22;93549.97;;;23.70;43.00
16738;BME280;17906;47.684;10.806;2022-08-11T12:14:06;93569.34;;;23.70;43.21
16738;BME280;17906;47.684;10.806;2022-08-11T12:16:35;93555.19;;;23.72;44.10
16738;BME280;17906;47.684;10.806;2022-08-11T12:19:05;93555.53;;;23.79;45.89
16738;BME280;17906;47.684;10.806;2022-08-11T12:21:33;93549.31;;;23.74;42.63
16738;BME280;17906;47.684;10.806;2022-08-11T12:24:01;93557.31;;;23.84;43.72
16738;BME280;17906;47.684;10.806;2022-08-11T12:26:46;93552.28;;;24.03;43.76
16738;BME280;17906;47.684;10.806;2022-08-11T12:29:31;93548.03;;;23.80;44.37
16738;BME280;17906;47.684;10.806;2022-08-11T12:32:01;93551.97;;;24.05;43.87
16738;BME280;17906;47.684;10.806;2022-08-11T12:34:32;93552.53;;;23.58;42.98
16738;BME280;17906;47.684;10.806;2022-08-11T12:37:00;93553.66;;;23.49;44.00
16738;BME280;17906;47.684;10.806;2022-08-11T12:39:33;93553.44;;;23.36;42.52
16738;BME280;17906;47.684;10.806;2022-08-11T12:42:18;93544.22;;;23.50;43.05
16738;BME280;17906;47.684;10.806;2022-08-11T12:45:08;93548.81;;;23.54;43.17
16738;BME280;17906;47.684;10.806;2022-08-11T12:48:03;93535.97;;;23.67;43.00
16738;BME280;17906;47.684;10.806;2022-08-11T12:50:51;93537.72;;;23.54;42.93
16738;BME280;17906;47.684;10.806;2022-08-11T12:53:42;93538.13;;;23.39;44.60
16738;BME280;17906;47.684;10.806;2022-08-11T12:56:10;93543.38;;;23.40;45.62
16738;BME280;17906;47.684;10.806;2022-08-11T12:58:55;93534.16;;;23.62;44.08
16738;BME280;17906;47.684;10.806;2022-08-11T13:01:41;93537.38;;;23.47;43.57
16738;BME280;17906;47.684;10.806;2022-08-11T13:04:28;93531.59;;;23.26;46.16
16738;BME280;17906;47.684;10.806;2022-08-11T13:07:12;93532.09;;;23.37;44.28
16738;BME280;17906;47.684;10.806;2022-08-11T13:09:40;93529.47;;;23.23;42.77
16738;BME280;17906;47.684;10.806;2022-08-11T13:12:08;93522.41;;;23.48;44.08
16738;BME280;17906;47.684;10.806;2022-08-11T13:14:53;93527.72;;;23.36;44.69
16738;BME280;17906;47.684;10.806;2022-08-11T13:17:21;93521.69;;;22.94;43.40
16738;BME280;17906;47.684;10.806;2022-08-11T13:19:50;93524.09;;;22.87;44.26
16738;BME280;17906;47.684;10.806;2022-08-11T13:22:19;93525.72;;;22.88;45.03
16738;BME280;17906;47.684;10.806;2022-08-11T13:24:48;93518.56;;;22.87;45.34
16738;BME280;17906;47.684;10.806;2022-08-11T13:27:17;93509.50;;;22.95;45.88
16738;BME280;17906;47.684;10.806;2022-08-11T13:29:45;93508.28;;;23.10;44.39
16738;BME280;17906;47.684;10.806;2022-08-11T13:32:13;93517.63;;;22.92;44.21
16738;BME280;17906;47.684;10.806;2022-08-11T13:34:41;93514.53;;;22.93;43.46
16738;BME280;17906;47.684;10.806;2022-08-11T13:37:12;93521.34;;;22.87;43.75
16738;BME280;17906;47.684;10.806;2022-08-11T13:39:41;93521.59;;;22.77;43.87
16738;BME280;17906;47.684;10.806;2022-08-11T13:42:13;93518.81;;;22.99;43.96
16738;BME280;17906;47.684;10.806;2022-08-11T13:44:41;93514.09;;;23.08;43.29
16738;BME280;17906;47.684;10.806;2022-08-11T13:47:11;93511.69;;;23.16;43.86
16738;BME280;17906;47.684;10.806;2022-08-11T13:49:39;93513.53;;;23.29;42.98
16738;BME280;17906;47.684;10.806;2022-08-11T13:52:13;93508.47;;;23.22;44.50
16738;BME280;17906;47.684;10.806;2022-08-11T13:54:42;93504.66;;;23.09;43.51
16738;BME280;17906;47.684;10.806;2022-08-11T13:57:13;93502.78;;;22.88;43.74
16738;BME280;17906;47.684;10.806;2022-08-11T13:59:40;93514.53;;;22.93;44.09
16738;BME280;17906;47.684;10.806;2022-08-11T14:02:12;93502.50;;;22.89;43.19
16738;BME280;17906;47.684;10.806;2022-08-11T14:04:42;93504.97;;;22.99;42.43
16738;BME280;17906;47.684;10.806;2022-08-11T14:07:11;93501.59;;;23.20;44.29
16738;BME280;17906;47.684;10.806;2022-08-11T14:09:42;93495.78;;;23.30;43.84
16738;BME280;17906;47.684;10.806;2022-08-11T14:12:13;93492.16;;;23.21;43.07
16738;BME280;17906;47.684;10.806;2022-08-11T14:15:01;93498.81;;;23.02;44.52
16738;BME280;17906;47.684;10.806;2022-08-11T14:17:30;93498.63;;;22.68;43.45
16738;BME280;17906;47.684;10.806;2022-08-11T14:20:00;93498.38;;;22.55;43.23
16738;BME280;17906;47.684;10.806;2022-08-11T14:22:30;93499.06;;;22.61;42.78
16738;BME280;17906;47.684;10.806;2022-08-11T14:24:57;93500.16;;;22.51;44.19
16738;BME280;17906;47.684;10.806;2022-08-11T14:27:24;93490.09;;;22.78;45.26
16738;BME280;17906;47.684;10.806;2022-08-11T14:29:55;93488.38;;;22.99;44.38
16738;BME280;17906;47.684;10.806;2022-08-11T14:32:23;93488.84;;;22.93;43.09
16738;BME280;17906;47.684;10.806;2022-08-11T14:34:50;93488.41;;;23.08;43.28